sensor_id;sensor_type;location;lat;lon;timestamp;P1;durP1;ratioP1;P2;durP2;ratioP2
25481;SDS011;13395;50.752;4.268;2022-07-09T00:02:14;4.63;;;1.80;;
25481;SDS011;13395;50.752;4.268;2022-07-09T00:04:39;3.70;;;1.83;;
25481;SDS011;13395;50.752;4.268;2022-07-09T00:07:05;4.22;;;1.73;;
25481;SDS011;13395;50.752;4.268;2022-07-09T00:09:30;3.78;;;1.90;;
25481;SDS011;13395;50.752;4.268;2022-07-09T00:11:56;8.45;;;2.22;;
25481;SDS011;13395;50.752;4.268;2022-07-09T00:14:22;3.00;;;1.90;;
25481;SDS011;13395;50.752;4.268;2022-07-09T00:16:48;5.30;;;1.98;;
25481;SDS011;13395;50.752;4.268;2022-07-09T00:19:14;5.00;;;2.35;;
25481;SDS011;13395;50.752;4.268;2022-07-09T00:21:40;5.32;;;2.00;;
25481;SDS011;13395;50.752;4.268;2022-07-09T00:24:05;4.72;;;2.15;;
25481;SDS011;13395;50.752;4.268;2022-07-09T00:26:31;2.65;;;1.90;;
25481;SDS011;13395;50.752;4.268;2022-07-09T00:28:57;3.15;;;2.13;;
25481;SDS011;13395;50.752;4.268;2022-07-09T00:31:23;5.45;;;2.05;;
25481;SDS011;13395;50.752;4.268;2022-07-09T00:33:48;4.38;;;2.03;;
25481;SDS011;13395;50.752;4.268;2022-07-09T00:36:14;4.20;;;2.30;;
25481;SDS011;13395;50.752;4.268;2022-07-09T00:38:40;3.65;;;2.03;;
25481;SDS011;13395;50.752;4.268;2022-07-09T00:41:05;3.40;;;1.88;;
25481;SDS011;13395;50.752;4.268;2022-07-09T00:43:31;3.10;;;2.00;;
25481;SDS011;13395;50.752;4.268;2022-07-09T00:45:56;2.80;;;2.13;;
25481;SDS011;13395;50.752;4.268;2022-07-09T00:48:22;3.38;;;2.08;;
25481;SDS011;13395;50.752;4.268;2022-07-09T00:50:48;2.50;;;1.63;;
25481;SDS011;13395;50.752;4.268;2022-07-09T00:53:15;3.33;;;2.05;;
25481;SDS011;13395;50.752;4.268;2022-07-09T00:55:42;4.28;;;1.80;;
25481;SDS011;13395;50.752;4.268;2022-07-09T00:58:12;4.43;;;2.33;;
25481;SDS011;13395;50.752;4.268;2022-07-09T01:00:40;2.85;;;2.22;;
25481;SDS011;13395;50.752;4.268;2022-07-09T01:03:06;3.58;;;2.63;;
25481;SDS011;13395;50.752;4.268;2022-07-09T01:05:32;3.67;;;1.75;;
25481;SDS011;13395;50.752;4.268;2022-07-09T01:08:01;2.25;;;2.00;;
25481;SDS011;13395;50.752;4.268;2022-07-09T01:10:31;4.47;;;2.00;;
25481;SDS011;13395;50.752;4.268;2022-07-09T01:12:58;2.70;;;1.98;;
25481;SDS011;13395;50.752;4.268;2022-07-09T01:15:24;2.78;;;1.95;;
25481;SDS011;13395;50.752;4.268;2022-07-09T01:17:50;3.05;;;2.22;;
25481;SDS011;13395;50.752;4.268;2022-07-09T01:20:50;3.85;;;1.90;;
25481;SDS011;13395;50.752;4.268;2022-07-09T01:23:09;2.45;;;2.00;;
25481;SDS011;13395;50.752;4.268;2022-07-09T01:28:02;3.38;;;2.00;;
25481;SDS011;13395;50.752;4.268;2022-07-09T01:30:31;3.75;;;1.92;;
25481;SDS011;13395;50.752;4.268;2022-07-09T01:32:57;5.05;;;2.10;;
25481;SDS011;13395;50.752;4.268;2022-07-09T01:35:23;3.97;;;1.70;;
25481;SDS011;13395;50.752;4.268;2022-07-09T01:37:49;3.45;;;2.08;;
25481;SDS011;13395;50.752;4.268;2022-07-09T01:40:15;3.50;;;1.80;;
25481;SDS011;13395;50.752;4.268;2022-07-09T01:42:41;4.40;;;1.83;;
25481;SDS011;13395;50.752;4.268;2022-07-09T01:45:07;4.22;;;2.00;;
25481;SDS011;13395;50.752;4.268;2022-07-09T01:47:33;2.67;;;1.75;;
25481;SDS011;13395;50.752;4.268;2022-07-09T01:49:58;2.83;;;2.03;;
25481;SDS011;13395;50.752;4.268;2022-07-09T01:52:24;3.53;;;1.90;;
25481;SDS011;13395;50.752;4.268;2022-07-09T01:54:50;3.30;;;2.05;;
25481;SDS011;13395;50.752;4.268;2022-07-09T01:57:16;3.15;;;1.95;;
25481;SDS011;13395;50.752;4.268;2022-07-09T01:59:42;3.50;;;1.90;;
25481;SDS011;13395;50.752;4.268;2022-07-09T02:02:08;2.83;;;2.30;;
25481;SDS011;13395;50.752;4.268;2022-07-09T02:04:33;3.58;;;1.70;;
25481;SDS011;13395;50.752;4.268;2022-07-09T02:07:00;2.75;;;2.00;;
25481;SDS011;13395;50.752;4.268;2022-07-09T02:09:26;2.22;;;1.88;;
25481;SDS011;13395;50.752;4.268;2022-07-09T02:11:51;3.45;;;2.05;;
25481;SDS011;13395;50.752;4.268;2022-07-09T02:14:17;5.07;;;2.22;;
25481;SDS011;13395;50.752;4.268;2022-07-09T02:16:42;3.53;;;2.00;;
25481;SDS011;13395;50.752;4.268;2022-07-09T02:19:08;2.85;;;2.17;;
25481;SDS011;13395;50.752;4.268;2022-07-09T02:21:34;2.92;;;1.88;;
25481;SDS011;13395;50.752;4.268;2022-07-09T02:24:00;3.97;;;1.85;;
25481;SDS011;13395;50.752;4.268;2022-07-09T02:26:26;3.80;;;2.30;;
25481;SDS011;13395;50.752;4.268;2022-07-09T02:28:53;4.03;;;1.95;;
25481;SDS011;13395;50.752;4.268;2022-07-09T02:31:19;4.63;;;2.03;;
25481;SDS011;13395;50.752;4.268;2022-07-09T02:33:45;4.75;;;2.42;;
25481;SDS011;13395;50.752;4.268;2022-07-09T02:36:11;3.67;;;2.05;;
25481;SDS011;13395;50.752;4.268;2022-07-09T02:38:36;3.88;;;1.88;;
25481;SDS011;13395;50.752;4.268;2022-07-09T02:41:03;4.15;;;2.15;;
25481;SDS011;13395;50.752;4.268;2022-07-09T02:43:29;2.55;;;1.90;;
25481;SDS011;13395;50.752;4.268;2022-07-09T02:45:55;4.72;;;2.47;;
25481;SDS011;13395;50.752;4.268;2022-07-09T02:48:22;4.03;;;2.25;;
25481;SDS011;13395;50.752;4.268;2022-07-09T02:50:48;2.45;;;1.90;;
25481;SDS011;13395;50.752;4.268;2022-07-09T02:53:14;4.85;;;2.13;;
25481;SDS011;13395;50.752;4.268;2022-07-09T02:55:40;5.82;;;2.20;;
25481;SDS011;13395;50.752;4.268;2022-07-09T02:58:06;2.95;;;2.15;;
25481;SDS011;13395;50.752;4.268;2022-07-09T03:00:31;4.72;;;2.30;;
25481;SDS011;13395;50.752;4.268;2022-07-09T03:02:57;3.30;;;2.05;;
25481;SDS011;13395;50.752;4.268;2022-07-09T03:05:23;6.28;;;2.70;;
25481;SDS011;13395;50.752;4.268;2022-07-09T03:07:49;3.50;;;2.35;;
25481;SDS011;13395;50.752;4.268;2022-07-09T03:10:15;6.07;;;2.72;;
25481;SDS011;13395;50.752;4.268;2022-07-09T03:12:40;4.55;;;2.25;;
25481;SDS011;13395;50.752;4.268;2022-07-09T03:15:07;3.10;;;2.20;;
25481;SDS011;13395;50.752;4.268;2022-07-09T03:17:34;6.10;;;2.60;;
25481;SDS011;13395;50.752;4.268;2022-07-09T03:20:00;2.75;;;2.20;;
25481;SDS011;13395;50.752;4.268;2022-07-09T03:22:26;4.88;;;2.30;;
25481;SDS011;13395;50.752;4.268;2022-07-09T03:24:51;3.83;;;2.67;;
25481;SDS011;13395;50.752;4.268;2022-07-09T03:27:17;4.35;;;2.40;;
25481;SDS011;13395;50.752;4.268;2022-07-09T03:29:42;4.95;;;2.40;;
25481;SDS011;13395;50.752;4.268;2022-07-09T03:32:08;7.88;;;2.55;;
25481;SDS011;13395;50.752;4.268;2022-07-09T03:34:34;5.10;;;2.15;;
25481;SDS011;13395;50.752;4.268;2022-07-09T03:36:59;3.95;;;2.33;;
25481;SDS011;13395;50.752;4.268;2022-07-09T03:39:25;3.03;;;2.30;;
25481;SDS011;13395;50.752;4.268;2022-07-09T03:41:51;4.43;;;2.40;;
25481;SDS011;13395;50.752;4.268;2022-07-09T03:44:17;4.13;;;2.60;;
25481;SDS011;13395;50.752;4.268;2022-07-09T03:46:43;5.35;;;2.38;;
25481;SDS011;13395;50.752;4.268;2022-07-09T03:49:09;4.35;;;2.38;;
25481;SDS011;13395;50.752;4.268;2022-07-09T03:51:35;3.80;;;2.30;;
25481;SDS011;13395;50.752;4.268;2022-07-09T03:54:01;5.32;;;2.28;;
25481;SDS011;13395;50.752;4.268;2022-07-09T03:56:26;4.50;;;3.10;;
25481;SDS011;13395;50.752;4.268;2022-07-09T03:58:52;4.20;;;2.65;;
25481;SDS011;13395;50.752;4.268;2022-07-09T04:01:18;3.83;;;2.50;;
25481;SDS011;13395;50.752;4.268;2022-07-09T04:03:43;3.63;;;2.88;;
25481;SDS011;13395;50.752;4.268;2022-07-09T04:06:10;3.80;;;2.50;;
25481;SDS011;13395;50.752;4.268;2022-07-09T04:08:35;3.60;;;2.60;;
25481;SDS011;13395;50.752;4.268;2022-07-09T04:11:01;4.57;;;3.05;;
25481;SDS011;13395;50.752;4.268;2022-07-09T04:13:27;3.53;;;2.67;;
25481;SDS011;13395;50.752;4.268;2022-07-09T04:15:53;7.97;;;3.17;;
25481;SDS011;13395;50.752;4.268;2022-07-09T04:18:19;4.40;;;3.08;;
25481;SDS011;13395;50.752;4.268;2022-07-09T04:20:45;8.95;;;2.70;;
25481;SDS011;13395;50.752;4.268;2022-07-09T04:23:10;4.63;;;3.42;;
25481;SDS011;13395;50.752;4.268;2022-07-09T04:25:36;4.22;;;3.10;;
25481;SDS011;13395;50.752;4.268;2022-07-09T04:28:02;5.20;;;3.15;;
25481;SDS011;13395;50.752;4.268;2022-07-09T04:30:28;5.28;;;3.15;;
25481;SDS011;13395;50.752;4.268;2022-07-09T04:32:54;5.53;;;3.55;;
25481;SDS011;13395;50.752;4.268;2022-07-09T04:35:19;7.13;;;3.22;;
25481;SDS011;13395;50.752;4.268;2022-07-09T04:37:45;4.25;;;3.25;;
25481;SDS011;13395;50.752;4.268;2022-07-09T04:40:11;4.00;;;3.35;;
25481;SDS011;13395;50.752;4.268;2022-07-09T04:42:37;4.68;;;2.83;;
25481;SDS011;13395;50.752;4.268;2022-07-09T04:45:03;5.13;;;3.85;;
25481;SDS011;13395;50.752;4.268;2022-07-09T04:47:29;6.78;;;3.92;;
25481;SDS011;13395;50.752;4.268;2022-07-09T04:49:55;4.20;;;3.30;;
25481;SDS011;13395;50.752;4.268;2022-07-09T04:52:20;7.85;;;3.25;;
25481;SDS011;13395;50.752;4.268;2022-07-09T04:54:46;5.13;;;3.45;;
25481;SDS011;13395;50.752;4.268;2022-07-09T04:57:12;5.03;;;3.22;;
25481;SDS011;13395;50.752;4.268;2022-07-09T04:59:38;5.68;;;3.85;;
25481;SDS011;13395;50.752;4.268;2022-07-09T05:02:04;6.43;;;3.67;;
25481;SDS011;13395;50.752;4.268;2022-07-09T05:04:30;5.40;;;3.88;;
25481;SDS011;13395;50.752;4.268;2022-07-09T05:06:56;5.25;;;3.60;;
25481;SDS011;13395;50.752;4.268;2022-07-09T05:09:21;8.20;;;3.72;;
25481;SDS011;13395;50.752;4.268;2022-07-09T05:11:47;4.03;;;3.20;;
25481;SDS011;13395;50.752;4.268;2022-07-09T05:14:13;3.55;;;3.17;;
25481;SDS011;13395;50.752;4.268;2022-07-09T05:16:39;4.63;;;3.42;;
25481;SDS011;13395;50.752;4.268;2022-07-09T05:19:09;3.90;;;2.78;;
25481;SDS011;13395;50.752;4.268;2022-07-09T05:21:38;5.30;;;2.72;;
25481;SDS011;13395;50.752;4.268;2022-07-09T05:24:05;4.18;;;2.90;;
25481;SDS011;13395;50.752;4.268;2022-07-09T05:26:32;4.32;;;2.97;;
25481;SDS011;13395;50.752;4.268;2022-07-09T05:29:01;5.55;;;2.85;;
25481;SDS011;13395;50.752;4.268;2022-07-09T05:31:29;5.35;;;3.53;;
25481;SDS011;13395;50.752;4.268;2022-07-09T05:33:55;3.35;;;2.90;;
25481;SDS011;13395;50.752;4.268;2022-07-09T05:36:21;4.20;;;2.53;;
25481;SDS011;13395;50.752;4.268;2022-07-09T05:38:47;8.45;;;3.60;;
25481;SDS011;13395;50.752;4.268;2022-07-09T05:41:12;4.57;;;3.05;;
25481;SDS011;13395;50.752;4.268;2022-07-09T05:43:40;5.50;;;3.13;;
25481;SDS011;13395;50.752;4.268;2022-07-09T05:46:06;5.22;;;2.70;;
25481;SDS011;13395;50.752;4.268;2022-07-09T05:48:31;4.82;;;2.90;;
25481;SDS011;13395;50.752;4.268;2022-07-09T05:50:57;7.65;;;3.08;;
25481;SDS011;13395;50.752;4.268;2022-07-09T05:53:22;6.00;;;2.40;;
25481;SDS011;13395;50.752;4.268;2022-07-09T05:55:48;3.45;;;2.42;;
25481;SDS011;13395;50.752;4.268;2022-07-09T05:58:14;5.85;;;3.10;;
25481;SDS011;13395;50.752;4.268;2022-07-09T06:00:40;6.35;;;3.92;;
25481;SDS011;13395;50.752;4.268;2022-07-09T06:03:06;8.18;;;4.75;;
25481;SDS011;13395;50.752;4.268;2022-07-09T06:05:32;8.48;;;4.00;;
25481;SDS011;13395;50.752;4.268;2022-07-09T06:07:57;4.68;;;3.58;;
25481;SDS011;13395;50.752;4.268;2022-07-09T06:10:23;8.15;;;4.90;;
25481;SDS011;13395;50.752;4.268;2022-07-09T06:12:49;6.13;;;4.50;;
25481;SDS011;13395;50.752;4.268;2022-07-09T06:15:15;5.80;;;4.03;;
25481;SDS011;13395;50.752;4.268;2022-07-09T06:17:40;8.00;;;5.05;;
25481;SDS011;13395;50.752;4.268;2022-07-09T06:20:06;7.35;;;4.25;;
25481;SDS011;13395;50.752;4.268;2022-07-09T06:22:33;8.35;;;4.40;;
25481;SDS011;13395;50.752;4.268;2022-07-09T06:24:59;8.00;;;4.28;;
25481;SDS011;13395;50.752;4.268;2022-07-09T06:27:24;7.40;;;4.63;;
25481;SDS011;13395;50.752;4.268;2022-07-09T06:29:50;8.55;;;4.18;;
25481;SDS011;13395;50.752;4.268;2022-07-09T06:32:16;6.03;;;4.35;;
25481;SDS011;13395;50.752;4.268;2022-07-09T06:34:41;5.50;;;4.43;;
25481;SDS011;13395;50.752;4.268;2022-07-09T06:37:07;7.65;;;4.80;;
25481;SDS011;13395;50.752;4.268;2022-07-09T06:39:33;7.88;;;5.28;;
25481;SDS011;13395;50.752;4.268;2022-07-09T06:42:11;9.18;;;4.32;;
25481;SDS011;13395;50.752;4.268;2022-07-09T06:44:38;6.95;;;5.47;;
25481;SDS011;13395;50.752;4.268;2022-07-09T06:47:05;9.07;;;5.53;;
25481;SDS011;13395;50.752;4.268;2022-07-09T06:49:31;8.38;;;5.57;;
25481;SDS011;13395;50.752;4.268;2022-07-09T06:51:59;7.75;;;4.95;;
25481;SDS011;13395;50.752;4.268;2022-07-09T06:54:25;8.93;;;4.70;;
25481;SDS011;13395;50.752;4.268;2022-07-09T06:56:51;6.05;;;4.40;;
25481;SDS011;13395;50.752;4.268;2022-07-09T06:59:17;4.95;;;3.97;;
25481;SDS011;13395;50.752;4.268;2022-07-09T07:01:47;6.00;;;4.00;;
25481;SDS011;13395;50.752;4.268;2022-07-09T07:04:13;8.40;;;4.20;;
25481;SDS011;13395;50.752;4.268;2022-07-09T07:06:40;5.30;;;3.53;;
25481;SDS011;13395;50.752;4.268;2022-07-09T07:09:06;8.82;;;4.60;;
25481;SDS011;13395;50.752;4.268;2022-07-09T07:11:35;4.90;;;3.15;;
25481;SDS011;13395;50.752;4.268;2022-07-09T07:14:00;9.32;;;4.03;;
25481;SDS011;13395;50.752;4.268;2022-07-09T07:16:27;7.35;;;3.75;;
25481;SDS011;13395;50.752;4.268;2022-07-09T07:18:52;6.72;;;3.47;;
25481;SDS011;13395;50.752;4.268;2022-07-09T07:21:18;5.63;;;3.28;;
25481;SDS011;13395;50.752;4.268;2022-07-09T07:23:44;8.15;;;4.00;;
25481;SDS011;13395;50.752;4.268;2022-07-09T07:26:10;7.40;;;4.18;;
25481;SDS011;13395;50.752;4.268;2022-07-09T07:28:35;9.27;;;4.70;;
25481;SDS011;13395;50.752;4.268;2022-07-09T07:31:01;8.02;;;4.80;;
25481;SDS011;13395;50.752;4.268;2022-07-09T07:33:27;8.23;;;3.78;;
25481;SDS011;13395;50.752;4.268;2022-07-09T07:35:52;10.80;;;3.80;;
25481;SDS011;13395;50.752;4.268;2022-07-09T07:38:18;8.85;;;4.68;;
25481;SDS011;13395;50.752;4.268;2022-07-09T07:40:44;12.20;;;5.95;;
25481;SDS011;13395;50.752;4.268;2022-07-09T07:43:10;14.15;;;6.03;;
25481;SDS011;13395;50.752;4.268;2022-07-09T07:45:39;10.27;;;5.13;;
25481;SDS011;13395;50.752;4.268;2022-07-09T07:48:04;12.18;;;6.10;;
25481;SDS011;13395;50.752;4.268;2022-07-09T07:50:30;9.10;;;6.05;;
25481;SDS011;13395;50.752;4.268;2022-07-09T07:52:57;7.20;;;5.20;;
25481;SDS011;13395;50.752;4.268;2022-07-09T07:55:23;8.55;;;6.32;;
25481;SDS011;13395;50.752;4.268;2022-07-09T07:57:48;11.27;;;6.13;;
25481;SDS011;13395;50.752;4.268;2022-07-09T08:00:14;12.05;;;6.10;;
25481;SDS011;13395;50.752;4.268;2022-07-09T08:02:40;8.00;;;5.10;;
25481;SDS011;13395;50.752;4.268;2022-07-09T08:05:06;8.60;;;4.88;;
25481;SDS011;13395;50.752;4.268;2022-07-09T08:07:32;10.32;;;3.75;;
25481;SDS011;13395;50.752;4.268;2022-07-09T08:09:58;6.85;;;3.42;;
25481;SDS011;13395;50.752;4.268;2022-07-09T08:12:23;6.45;;;3.63;;
25481;SDS011;13395;50.752;4.268;2022-07-09T08:14:49;7.25;;;2.88;;
25481;SDS011;13395;50.752;4.268;2022-07-09T08:17:15;6.38;;;3.28;;
25481;SDS011;13395;50.752;4.268;2022-07-09T08:19:41;7.80;;;2.85;;
25481;SDS011;13395;50.752;4.268;2022-07-09T08:22:07;5.43;;;2.40;;
25481;SDS011;13395;50.752;4.268;2022-07-09T08:24:32;7.93;;;2.78;;
25481;SDS011;13395;50.752;4.268;2022-07-09T08:26:58;7.53;;;2.72;;
25481;SDS011;13395;50.752;4.268;2022-07-09T08:29:24;6.32;;;3.00;;
25481;SDS011;13395;50.752;4.268;2022-07-09T08:31:50;6.95;;;3.03;;
25481;SDS011;13395;50.752;4.268;2022-07-09T08:34:16;7.40;;;2.80;;
25481;SDS011;13395;50.752;4.268;2022-07-09T08:36:42;4.88;;;2.65;;
25481;SDS011;13395;50.752;4.268;2022-07-09T08:39:09;4.35;;;3.05;;
25481;SDS011;13395;50.752;4.268;2022-07-09T08:41:35;8.30;;;2.90;;
25481;SDS011;13395;50.752;4.268;2022-07-09T08:44:01;5.82;;;3.45;;
25481;SDS011;13395;50.752;4.268;2022-07-09T08:46:28;7.95;;;2.83;;
25481;SDS011;13395;50.752;4.268;2022-07-09T08:48:56;8.18;;;3.85;;
25481;SDS011;13395;50.752;4.268;2022-07-09T08:51:23;4.82;;;2.75;;
25481;SDS011;13395;50.752;4.268;2022-07-09T08:53:49;4.32;;;3.33;;
25481;SDS011;13395;50.752;4.268;2022-07-09T08:56:15;5.72;;;2.75;;
25481;SDS011;13395;50.752;4.268;2022-07-09T08:58:40;6.25;;;2.90;;
25481;SDS011;13395;50.752;4.268;2022-07-09T09:01:06;4.28;;;2.83;;
25481;SDS011;13395;50.752;4.268;2022-07-09T09:03:33;5.70;;;3.15;;
25481;SDS011;13395;50.752;4.268;2022-07-09T09:06:06;6.05;;;3.88;;
25481;SDS011;13395;50.752;4.268;2022-07-09T09:08:34;4.90;;;3.47;;
25481;SDS011;13395;50.752;4.268;2022-07-09T09:11:07;7.50;;;4.15;;
25481;SDS011;13395;50.752;4.268;2022-07-09T09:13:44;5.57;;;3.50;;
25481;SDS011;13395;50.752;4.268;2022-07-09T09:16:12;6.32;;;3.35;;
25481;SDS011;13395;50.752;4.268;2022-07-09T09:18:42;5.18;;;3.08;;
25481;SDS011;13395;50.752;4.268;2022-07-09T09:21:12;6.13;;;3.10;;
25481;SDS011;13395;50.752;4.268;2022-07-09T09:26:11;5.07;;;3.03;;
25481;SDS011;13395;50.752;4.268;2022-07-09T09:28:50;9.82;;;2.92;;
25481;SDS011;13395;50.752;4.268;2022-07-09T09:31:19;7.80;;;2.90;;
25481;SDS011;13395;50.752;4.268;2022-07-09T09:33:53;4.90;;;3.85;;
25481;SDS011;13395;50.752;4.268;2022-07-09T09:36:40;6.00;;;4.15;;
25481;SDS011;13395;50.752;4.268;2022-07-09T09:39:16;6.47;;;4.65;;
25481;SDS011;13395;50.752;4.268;2022-07-09T09:41:43;8.20;;;4.80;;
25481;SDS011;13395;50.752;4.268;2022-07-09T09:44:14;5.90;;;5.38;;
25481;SDS011;13395;50.752;4.268;2022-07-09T09:46:44;10.93;;;8.88;;
25481;SDS011;13395;50.752;4.268;2022-07-09T09:49:12;10.77;;;7.32;;
25481;SDS011;13395;50.752;4.268;2022-07-09T09:54:13;11.45;;;9.63;;
25481;SDS011;13395;50.752;4.268;2022-07-09T09:56:39;14.60;;;10.35;;
25481;SDS011;13395;50.752;4.268;2022-07-09T09:59:05;14.48;;;13.18;;
25481;SDS011;13395;50.752;4.268;2022-07-09T10:01:31;16.75;;;15.20;;
25481;SDS011;13395;50.752;4.268;2022-07-09T10:03:58;19.42;;;17.70;;
25481;SDS011;13395;50.752;4.268;2022-07-09T10:06:24;16.77;;;14.95;;
25481;SDS011;13395;50.752;4.268;2022-07-09T10:08:51;19.05;;;17.13;;
25481;SDS011;13395;50.752;4.268;2022-07-09T10:11:19;21.42;;;19.17;;
25481;SDS011;13395;50.752;4.268;2022-07-09T10:16:31;23.05;;;20.75;;
25481;SDS011;13395;50.752;4.268;2022-07-09T10:19:01;22.65;;;20.33;;
25481;SDS011;13395;50.752;4.268;2022-07-09T10:21:37;20.85;;;17.63;;
25481;SDS011;13395;50.752;4.268;2022-07-09T10:24:04;19.45;;;17.77;;
25481;SDS011;13395;50.752;4.268;2022-07-09T10:26:34;19.20;;;17.38;;
25481;SDS011;13395;50.752;4.268;2022-07-09T10:29:25;20.15;;;18.25;;
25481;SDS011;13395;50.752;4.268;2022-07-09T10:31:52;22.63;;;20.48;;
25481;SDS011;13395;50.752;4.268;2022-07-09T10:34:26;22.42;;;20.45;;
25481;SDS011;13395;50.752;4.268;2022-07-09T10:37:00;20.08;;;18.38;;
25481;SDS011;13395;50.752;4.268;2022-07-09T10:39:27;18.58;;;16.88;;
25481;SDS011;13395;50.752;4.268;2022-07-09T10:42:06;18.65;;;16.75;;
25481;SDS011;13395;50.752;4.268;2022-07-09T10:44:42;17.88;;;16.38;;
25481;SDS011;13395;50.752;4.268;2022-07-09T10:47:08;17.17;;;15.18;;
25481;SDS011;13395;50.752;4.268;2022-07-09T10:49:34;16.98;;;14.20;;
25481;SDS011;13395;50.752;4.268;2022-07-09T10:52:00;14.73;;;10.98;;
25481;SDS011;13395;50.752;4.268;2022-07-09T10:54:27;12.98;;;11.68;;
25481;SDS011;13395;50.752;4.268;2022-07-09T10:56:53;10.98;;;9.55;;
25481;SDS011;13395;50.752;4.268;2022-07-09T10:59:20;13.13;;;8.82;;
25481;SDS011;13395;50.752;4.268;2022-07-09T11:01:46;9.50;;;8.60;;
25481;SDS011;13395;50.752;4.268;2022-07-09T11:04:11;7.72;;;7.13;;
25481;SDS011;13395;50.752;4.268;2022-07-09T11:06:47;8.18;;;7.38;;
25481;SDS011;13395;50.752;4.268;2022-07-09T11:09:13;7.18;;;6.07;;
25481;SDS011;13395;50.752;4.268;2022-07-09T11:11:43;10.88;;;7.07;;
25481;SDS011;13395;50.752;4.268;2022-07-09T11:14:10;12.25;;;8.65;;
25481;SDS011;13395;50.752;4.268;2022-07-09T11:16:36;12.02;;;8.15;;
25481;SDS011;13395;50.752;4.268;2022-07-09T11:19:18;15.10;;;8.07;;
25481;SDS011;13395;50.752;4.268;2022-07-09T11:21:44;10.35;;;8.18;;
25481;SDS011;13395;50.752;4.268;2022-07-09T11:26:48;5.97;;;4.80;;
25481;SDS011;13395;50.752;4.268;2022-07-09T11:29:14;8.93;;;4.70;;
25481;SDS011;13395;50.752;4.268;2022-07-09T11:34:18;5.78;;;4.43;;
25481;SDS011;13395;50.752;4.268;2022-07-09T11:36:50;9.75;;;4.25;;
25481;SDS011;13395;50.752;4.268;2022-07-09T11:39:21;33.33;;;3.70;;
25481;SDS011;13395;50.752;4.268;2022-07-09T11:41:55;22.33;;;3.30;;
25481;SDS011;13395;50.752;4.268;2022-07-09T11:44:25;4.03;;;2.10;;
25481;SDS011;13395;50.752;4.268;2022-07-09T11:49:33;6.40;;;2.22;;
25481;SDS011;13395;50.752;4.268;2022-07-09T11:52:27;3.05;;;1.60;;
25481;SDS011;13395;50.752;4.268;2022-07-09T11:57:27;6.57;;;1.73;;
25481;SDS011;13395;50.752;4.268;2022-07-09T11:59:53;5.97;;;1.75;;
25481;SDS011;13395;50.752;4.268;2022-07-09T12:02:32;4.88;;;1.80;;
25481;SDS011;13395;50.752;4.268;2022-07-09T12:05:05;7.07;;;1.67;;
25481;SDS011;13395;50.752;4.268;2022-07-09T12:07:33;5.68;;;2.15;;
25481;SDS011;13395;50.752;4.268;2022-07-09T12:10:00;2.97;;;1.63;;
25481;SDS011;13395;50.752;4.268;2022-07-09T12:12:30;2.97;;;1.83;;
25481;SDS011;13395;50.752;4.268;2022-07-09T12:14:57;2.50;;;1.02;;
25481;SDS011;13395;50.752;4.268;2022-07-09T12:17:26;2.65;;;1.13;;
25481;SDS011;13395;50.752;4.268;2022-07-09T12:19:53;17.25;;;3.35;;
25481;SDS011;13395;50.752;4.268;2022-07-09T12:22:19;5.30;;;1.45;;
25481;SDS011;13395;50.752;4.268;2022-07-09T12:24:48;4.72;;;1.10;;
25481;SDS011;13395;50.752;4.268;2022-07-09T12:27:14;6.13;;;1.73;;
25481;SDS011;13395;50.752;4.268;2022-07-09T12:29:39;10.20;;;1.50;;
25481;SDS011;13395;50.752;4.268;2022-07-09T12:32:06;6.72;;;1.13;;
25481;SDS011;13395;50.752;4.268;2022-07-09T12:34:32;5.90;;;1.02;;
25481;SDS011;13395;50.752;4.268;2022-07-09T12:36:58;11.40;;;1.30;;
25481;SDS011;13395;50.752;4.268;2022-07-09T12:39:23;3.05;;;0.88;;
25481;SDS011;13395;50.752;4.268;2022-07-09T12:41:49;5.93;;;1.25;;
25481;SDS011;13395;50.752;4.268;2022-07-09T12:44:15;8.00;;;0.90;;
25481;SDS011;13395;50.752;4.268;2022-07-09T12:46:40;5.22;;;0.90;;
25481;SDS011;13395;50.752;4.268;2022-07-09T12:49:07;4.57;;;0.88;;
25481;SDS011;13395;50.752;4.268;2022-07-09T12:51:33;18.23;;;1.80;;
25481;SDS011;13395;50.752;4.268;2022-07-09T12:53:58;8.00;;;1.40;;
25481;SDS011;13395;50.752;4.268;2022-07-09T12:56:24;8.75;;;1.35;;
25481;SDS011;13395;50.752;4.268;2022-07-09T12:58:50;7.75;;;1.15;;
25481;SDS011;13395;50.752;4.268;2022-07-09T13:01:15;1.38;;;0.80;;
25481;SDS011;13395;50.752;4.268;2022-07-09T13:03:41;10.20;;;2.35;;
25481;SDS011;13395;50.752;4.268;2022-07-09T13:06:07;20.08;;;1.90;;
25481;SDS011;13395;50.752;4.268;2022-07-09T13:08:59;19.75;;;1.88;;
25481;SDS011;13395;50.752;4.268;2022-07-09T13:11:26;11.43;;;1.88;;
25481;SDS011;13395;50.752;4.268;2022-07-09T13:13:52;7.55;;;1.95;;
25481;SDS011;13395;50.752;4.268;2022-07-09T13:16:17;5.18;;;1.77;;
25481;SDS011;13395;50.752;4.268;2022-07-09T13:18:43;12.65;;;1.90;;
25481;SDS011;13395;50.752;4.268;2022-07-09T13:21:09;12.35;;;1.92;;
25481;SDS011;13395;50.752;4.268;2022-07-09T13:23:34;6.60;;;2.05;;
25481;SDS011;13395;50.752;4.268;2022-07-09T13:26:00;3.95;;;1.20;;
25481;SDS011;13395;50.752;4.268;2022-07-09T13:28:25;9.48;;;1.08;;
25481;SDS011;13395;50.752;4.268;2022-07-09T13:30:52;13.02;;;2.08;;
25481;SDS011;13395;50.752;4.268;2022-07-09T13:33:17;2.17;;;1.08;;
25481;SDS011;13395;50.752;4.268;2022-07-09T13:35:43;1.65;;;0.90;;
25481;SDS011;13395;50.752;4.268;2022-07-09T13:38:09;19.48;;;1.95;;
25481;SDS011;13395;50.752;4.268;2022-07-09T13:40:34;8.15;;;0.85;;
25481;SDS011;13395;50.752;4.268;2022-07-09T13:43:00;5.15;;;1.00;;
25481;SDS011;13395;50.752;4.268;2022-07-09T13:45:25;3.65;;;0.90;;
25481;SDS011;13395;50.752;4.268;2022-07-09T13:47:55;9.23;;;1.20;;
25481;SDS011;13395;50.752;4.268;2022-07-09T13:50:20;4.03;;;1.15;;
25481;SDS011;13395;50.752;4.268;2022-07-09T13:52:47;10.02;;;1.35;;
25481;SDS011;13395;50.752;4.268;2022-07-09T13:55:13;4.07;;;0.90;;
25481;SDS011;13395;50.752;4.268;2022-07-09T13:57:39;3.03;;;0.98;;
25481;SDS011;13395;50.752;4.268;2022-07-09T14:00:05;4.07;;;1.15;;
25481;SDS011;13395;50.752;4.268;2022-07-09T14:02:33;6.32;;;1.20;;
25481;SDS011;13395;50.752;4.268;2022-07-09T14:04:59;2.83;;;1.23;;
25481;SDS011;13395;50.752;4.268;2022-07-09T14:07:29;7.03;;;2.35;;
25481;SDS011;13395;50.752;4.268;2022-07-09T14:09:55;3.35;;;1.70;;
25481;SDS011;13395;50.752;4.268;2022-07-09T14:12:21;9.90;;;1.50;;
25481;SDS011;13395;50.752;4.268;2022-07-09T14:14:49;8.18;;;1.85;;
25481;SDS011;13395;50.752;4.268;2022-07-09T14:17:14;3.78;;;1.17;;
25481;SDS011;13395;50.752;4.268;2022-07-09T14:19:40;2.65;;;1.20;;
25481;SDS011;13395;50.752;4.268;2022-07-09T14:22:06;3.40;;;1.33;;
25481;SDS011;13395;50.752;4.268;2022-07-09T14:24:32;6.75;;;1.30;;
25481;SDS011;13395;50.752;4.268;2022-07-09T14:26:57;2.28;;;0.90;;
25481;SDS011;13395;50.752;4.268;2022-07-09T14:29:23;6.03;;;1.05;;
25481;SDS011;13395;50.752;4.268;2022-07-09T14:31:49;1.92;;;0.80;;
25481;SDS011;13395;50.752;4.268;2022-07-09T14:34:15;12.75;;;1.10;;
25481;SDS011;13395;50.752;4.268;2022-07-09T14:36:41;3.72;;;1.00;;
25481;SDS011;13395;50.752;4.268;2022-07-09T14:39:07;5.45;;;0.90;;
25481;SDS011;13395;50.752;4.268;2022-07-09T14:41:34;4.53;;;1.02;;
25481;SDS011;13395;50.752;4.268;2022-07-09T14:44:00;4.40;;;0.98;;
25481;SDS011;13395;50.752;4.268;2022-07-09T14:46:26;3.83;;;0.60;;
25481;SDS011;13395;50.752;4.268;2022-07-09T14:48:52;5.43;;;0.88;;
25481;SDS011;13395;50.752;4.268;2022-07-09T14:51:18;2.90;;;0.98;;
25481;SDS011;13395;50.752;4.268;2022-07-09T14:53:43;3.42;;;1.42;;
25481;SDS011;13395;50.752;4.268;2022-07-09T14:56:09;5.20;;;1.25;;
25481;SDS011;13395;50.752;4.268;2022-07-09T14:58:34;2.78;;;1.05;;
25481;SDS011;13395;50.752;4.268;2022-07-09T15:01:00;3.20;;;0.80;;
25481;SDS011;13395;50.752;4.268;2022-07-09T15:03:26;5.00;;;1.15;;
25481;SDS011;13395;50.752;4.268;2022-07-09T15:05:51;3.33;;;1.23;;